sensor_id;sensor_type;location;lat;lon;timestamp;pressure;altitude;pressure_sealevel;temperature;humidity
55604;BME280;41468;48.838;9.330;2023-05-14T00:01:15;98328.56;;;12.38;100.00
55604;BME280;41468;48.838;9.330;2023-05-14T00:03:42;98325.88;;;12.42;100.00
55604;BME280;41468;48.838;9.330;2023-05-14T00:06:09;98324.69;;;12.39;100.00
55604;BME280;41468;48.838;9.330;2023-05-14T00:08:36;98325.81;;;12.34;100.00
55604;BME280;41468;48.838;9.330;2023-05-14T00:11:03;98317.91;;;12.26;100.00
55604;BME280;41468;48.838;9.330;2023-05-14T00:13:29;98315.13;;;12.22;100.00
55604;BME280;41468;48.838;9.330;2023-05-14T00:15:56;98312.00;;;12.20;100.00
55604;BME280;41468;48.838;9.330;2023-05-14T00:18:23;98303.28;;;12.04;100.00
55604;BME280;41468;48.838;9.330;2023-05-14T00:20:50;98302.56;;;12.14;100.00
55604;BME280;41468;48.838;9.330;2023-05-14T00:23:21;98304.66;;;12.28;100.00
55604;BME280;41468;48.838;9.330;2023-05-14T00:25:48;98298.72;;;12.22;100.00
55604;BME280;41468;48.838;9.330;2023-05-14T00:28:15;98297.88;;;12.14;100.00
55604;BME280;41468;48.838;9.330;2023-05-14T00:30:43;98299.88;;;12.18;100.00
55604;BME280;41468;48.838;9.330;2023-05-14T00:33:10;98287.81;;;12.29;100.00
55604;BME280;41468;48.838;9.330;2023-05-14T00:35:37;98289.34;;;12.23;100.00
55604;BME280;41468;48.838;9.330;2023-05-14T00:38:04;98290.47;;;12.19;100.00
55604;BME280;41468;48.838;9.330;2023-05-14T00:40:42;98289.38;;;12.30;100.00
55604;BME280;41468;48.838;9.330;2023-05-14T00:43:11;98291.56;;;12.07;100.00
55604;BME280;41468;48.838;9.330;2023-05-14T00:45:37;98298.59;;;12.08;100.00
55604;BME280;41468;48.838;9.330;2023-05-14T00:48:04;98283.28;;;12.00;100.00
55604;BME280;41468;48.838;9.330;2023-05-14T00:50:32;98284.78;;;11.93;100.00
55604;BME280;41468;48.838;9.330;2023-05-14T00:53:00;98288.53;;;11.82;100.00
55604;BME280;41468;48.838;9.330;2023-05-14T00:55:28;98276.81;;;11.81;100.00
55604;BME280;41468;48.838;9.330;2023-05-14T00:57:56;98273.97;;;11.67;100.00
55604;BME280;41468;48.838;9.330;2023-05-14T01:00:24;98270.53;;;11.77;100.00
55604;BME280;41468;48.838;9.330;2023-05-14T01:02:51;98275.59;;;11.75;100.00
55604;BME280;41468;48.838;9.330;2023-05-14T01:05:18;98272.44;;;11.73;100.00
55604;BME280;41468;48.838;9.330;2023-05-14T01:07:48;98267.31;;;11.68;100.00
55604;BME280;41468;48.838;9.330;2023-05-14T01:10:30;98270.34;;;11.56;100.00
55604;BME280;41468;48.838;9.330;2023-05-14T01:13:12;98275.09;;;11.66;100.00
55604;BME280;41468;48.838;9.330;2023-05-14T01:15:41;98277.41;;;11.60;100.00
55604;BME280;41468;48.838;9.330;2023-05-14T01:18:12;98273.19;;;11.70;100.00
55604;BME280;41468;48.838;9.330;2023-05-14T01:20:39;98267.31;;;11.68;100.00
55604;BME280;41468;48.838;9.330;2023-05-14T01:23:06;98268.84;;;11.65;100.00
55604;BME280;41468;48.838;9.330;2023-05-14T01:25:33;98260.69;;;11.69;100.00
55604;BME280;41468;48.838;9.330;2023-05-14T01:28:18;98263.44;;;11.69;100.00
55604;BME280;41468;48.838;9.330;2023-05-14T01:33:17;98257.91;;;11.65;100.00
55604;BME280;41468;48.838;9.330;2023-05-14T01:35:45;98260.69;;;11.69;100.00
55604;BME280;41468;48.838;9.330;2023-05-14T01:38:13;98263.47;;;11.72;100.00
55604;BME280;41468;48.838;9.330;2023-05-14T01:40:43;98265.38;;;11.68;100.00
55604;BME280;41468;48.838;9.330;2023-05-14T01:43:11;98262.88;;;11.53;100.00
55604;BME280;41468;48.838;9.330;2023-05-14T01:45:37;98266.84;;;11.59;100.00
55604;BME280;41468;48.838;9.330;2023-05-14T01:48:04;98266.13;;;11.65;100.00
55604;BME280;41468;48.838;9.330;2023-05-14T01:50:31;98266.13;;;11.65;100.00
55604;BME280;41468;48.838;9.330;2023-05-14T01:52:58;98266.41;;;11.53;100.00
55604;BME280;41468;48.838;9.330;2023-05-14T01:55:25;98256.72;;;11.63;100.00
55604;BME280;41468;48.838;9.330;2023-05-14T01:57:51;98260.19;;;11.56;100.00
55604;BME280;41468;48.838;9.330;2023-05-14T02:00:19;98255.84;;;11.55;100.00
55604;BME280;41468;48.838;9.330;2023-05-14T02:02:46;98260.16;;;11.53;100.00
55604;BME280;41468;48.838;9.330;2023-05-14T02:05:13;98261.97;;;11.41;100.00
55604;BME280;41468;48.838;9.330;2023-05-14T02:07:39;98258.00;;;11.35;100.00
55604;BME280;41468;48.838;9.330;2023-05-14T02:10:07;98260.31;;;11.33;100.00
55604;BME280;41468;48.838;9.330;2023-05-14T02:12:34;98263.38;;;11.28;100.00
55604;BME280;41468;48.838;9.330;2023-05-14T02:15:02;98260.25;;;11.26;100.00
55604;BME280;41468;48.838;9.330;2023-05-14T02:17:29;98260.19;;;11.22;100.00
55604;BME280;41468;48.838;9.330;2023-05-14T02:19:56;98251.63;;;11.24;100.00
55604;BME280;41468;48.838;9.330;2023-05-14T02:22:22;98257.19;;;11.31;100.00
55604;BME280;41468;48.838;9.330;2023-05-14T02:24:49;98262.59;;;11.27;100.00
55604;BME280;41468;48.838;9.330;2023-05-14T02:27:17;98262.69;;;11.35;100.00
55604;BME280;41468;48.838;9.330;2023-05-14T02:29:43;98255.94;;;11.25;100.00
55604;BME280;41468;48.838;9.330;2023-05-14T02:32:10;98261.50;;;11.36;100.00
55604;BME280;41468;48.838;9.330;2023-05-14T02:34:37;98253.25;;;11.28;100.00
55604;BME280;41468;48.838;9.330;2023-05-14T02:37:04;98259.72;;;11.17;100.00
55604;BME280;41468;48.838;9.330;2023-05-14T02:39:31;98258.59;;;11.18;100.00
55604;BME280;41468;48.838;9.330;2023-05-14T02:41:57;98266.19;;;11.35;100.00
55604;BME280;41468;48.838;9.330;2023-05-14T02:44:24;98264.78;;;11.48;100.00
55604;BME280;41468;48.838;9.330;2023-05-14T02:46:51;98269.03;;;11.42;100.00
55604;BME280;41468;48.838;9.330;2023-05-14T02:49:17;98259.31;;;11.48;100.00
55604;BME280;41468;48.838;9.330;2023-05-14T02:51:44;98257.91;;;11.28;100.00
55604;BME280;41468;48.838;9.330;2023-05-14T02:54:11;98258.66;;;11.25;100.00
55604;BME280;41468;48.838;9.330;2023-05-14T02:56:37;98257.66;;;11.40;100.00
55604;BME280;41468;48.838;9.330;2023-05-14T02:59:04;98262.47;;;11.50;100.00
55604;BME280;41468;48.838;9.330;2023-05-14T03:01:31;98265.88;;;11.40;100.00
55604;BME280;41468;48.838;9.330;2023-05-14T03:03:58;98266.19;;;11.35;100.00
55604;BME280;41468;48.838;9.330;2023-05-14T03:06:25;98267.06;;;11.43;100.00
55604;BME280;41468;48.838;9.330;2023-05-14T03:08:52;98267.09;;;11.46;100.00
55604;BME280;41468;48.838;9.330;2023-05-14T03:11:29;98274.88;;;11.44;100.00
55604;BME280;41468;48.838;9.330;2023-05-14T03:13:56;98265.97;;;11.51;100.00
55604;BME280;41468;48.838;9.330;2023-05-14T03:16:33;98271.81;;;11.49;100.00
55604;BME280;41468;48.838;9.330;2023-05-14T03:19:00;98268.69;;;11.47;100.00
55604;BME280;41468;48.838;9.330;2023-05-14T03:21:27;98264.81;;;11.52;100.00
55604;BME280;41468;48.838;9.330;2023-05-14T03:23:54;98266.56;;;11.34;100.00
55604;BME280;41468;48.838;9.330;2023-05-14T03:26:20;98264.56;;;11.31;100.00
55604;BME280;41468;48.838;9.330;2023-05-14T03:28:47;98267.03;;;11.39;100.00
55604;BME280;41468;48.838;9.330;2023-05-14T03:31:14;98261.34;;;11.21;100.00
55604;BME280;41468;48.838;9.330;2023-05-14T03:33:41;98260.13;;;11.15;100.00
55604;BME280;41468;48.838;9.330;2023-05-14T03:36:07;98264.13;;;11.25;100.00
55604;BME280;41468;48.838;9.330;2023-05-14T03:38:34;98264.88;;;11.22;100.00
55604;BME280;41468;48.838;9.330;2023-05-14T03:41:01;98269.84;;;11.13;100.00
55604;BME280;41468;48.838;9.330;2023-05-14T03:43:28;98264.97;;;11.29;100.00
55604;BME280;41468;48.838;9.330;2023-05-14T03:45:54;98261.44;;;11.28;100.00
55604;BME280;41468;48.838;9.330;2023-05-14T03:48:21;98266.44;;;11.23;100.00
55604;BME280;41468;48.838;9.330;2023-05-14T03:50:48;98261.81;;;11.27;100.00
55604;BME280;41468;48.838;9.330;2023-05-14T03:53:15;98262.97;;;11.26;100.00
55604;BME280;41468;48.838;9.330;2023-05-14T03:55:42;98261.06;;;11.30;100.00
55604;BME280;41468;48.838;9.330;2023-05-14T03:58:08;98261.38;;;11.25;100.00
55604;BME280;41468;48.838;9.330;2023-05-14T04:00:40;98258.97;;;11.20;100.00
55604;BME280;41468;48.838;9.330;2023-05-14T04:03:07;98252.00;;;11.22;100.00
55604;BME280;41468;48.838;9.330;2023-05-14T04:05:34;98255.16;;;11.24;100.00
55604;BME280;41468;48.838;9.330;2023-05-14T04:08:01;98253.28;;;11.32;100.00
55604;BME280;41468;48.838;9.330;2023-05-14T04:10:28;98254.72;;;11.22;100.00
55604;BME280;41468;48.838;9.330;2023-05-14T04:12:55;98250.91;;;11.31;100.00
55604;BME280;41468;48.838;9.330;2023-05-14T04:15:22;98253.28;;;11.32;100.00
55604;BME280;41468;48.838;9.330;2023-05-14T04:17:48;98248.75;;;11.10;100.00
55604;BME280;41468;48.838;9.330;2023-05-14T04:20:15;98242.84;;;11.08;100.00
55604;BME280;41468;48.838;9.330;2023-05-14T04:22:42;98251.59;;;11.20;100.00
55604;BME280;41468;48.838;9.330;2023-05-14T04:25:08;98249.72;;;11.28;100.00
55604;BME280;41468;48.838;9.330;2023-05-14T04:27:35;98252.44;;;11.28;100.00
55604;BME280;41468;48.838;9.330;2023-05-14T04:30:02;98251.59;;;11.20;100.00
55604;BME280;41468;48.838;9.330;2023-05-14T04:32:29;98253.16;;;11.21;100.00
55604;BME280;41468;48.838;9.330;2023-05-14T04:34:55;98256.31;;;11.23;100.00
55604;BME280;41468;48.838;9.330;2023-05-14T04:37:22;98250.84;;;11.23;100.00
55604;BME280;41468;48.838;9.330;2023-05-14T04:39:49;98252.06;;;11.26;100.00
55604;BME280;41468;48.838;9.330;2023-05-14T04:42:16;98259.81;;;11.24;100.00
55604;BME280;41468;48.838;9.330;2023-05-14T04:44:42;98250.03;;;11.23;100.00
55604;BME280;41468;48.838;9.330;2023-05-14T04:47:09;98249.91;;;11.12;100.00
55604;BME280;41468;48.838;9.330;2023-05-14T04:49:36;98252.00;;;11.22;100.00
55604;BME280;41468;48.838;9.330;2023-05-14T04:52:02;98252.44;;;10.94;100.00
55604;BME280;41468;48.838;9.330;2023-05-14T04:54:29;98259.69;;;11.13;100.00
55604;BME280;41468;48.838;9.330;2023-05-14T04:56:56;98257.00;;;11.17;100.00
55604;BME280;41468;48.838;9.330;2023-05-14T04:59:23;98256.75;;;11.29;100.00
55604;BME280;41468;48.838;9.330;2023-05-14T05:01:49;98260.28;;;11.30;100.00
55604;BME280;41468;48.838;9.330;2023-05-14T05:04:17;98259.50;;;11.29;100.00
55604;BME280;41468;48.838;9.330;2023-05-14T05:06:44;98255.34;;;11.42;100.00
55604;BME280;41468;48.838;9.330;2023-05-14T05:09:11;98254.63;;;11.49;100.00
55604;BME280;41468;48.838;9.330;2023-05-14T05:11:37;98260.72;;;11.35;100.00
55604;BME280;41468;48.838;9.330;2023-05-14T05:14:04;98263.88;;;11.37;100.00
55604;BME280;41468;48.838;9.330;2023-05-14T05:16:31;98259.56;;;11.36;100.00
55604;BME280;41468;48.838;9.330;2023-05-14T05:18:58;98254.97;;;11.44;100.00
55604;BME280;41468;48.838;9.330;2023-05-14T05:21:25;98256.91;;;11.43;100.00
55604;BME280;41468;48.838;9.330;2023-05-14T05:23:51;98258.09;;;11.42;100.00
55604;BME280;41468;48.838;9.330;2023-05-14T05:26:18;98258.84;;;11.39;100.00
55604;BME280;41468;48.838;9.330;2023-05-14T05:28:45;98255.41;;;11.49;100.00
55604;BME280;41468;48.838;9.330;2023-05-14T05:31:11;98256.16;;;11.46;100.00
55604;BME280;41468;48.838;9.330;2023-05-14T05:33:38;98258.44;;;11.41;100.00
55604;BME280;41468;48.838;9.330;2023-05-14T05:36:05;98258.88;;;11.43;100.00
55604;BME280;41468;48.838;9.330;2023-05-14T05:38:32;98263.59;;;11.49;100.00
55604;BME280;41468;48.838;9.330;2023-05-14T05:40:58;98252.63;;;11.42;100.00
55604;BME280;41468;48.838;9.330;2023-05-14T05:43:25;98249.78;;;11.35;100.00
55604;BME280;41468;48.838;9.330;2023-05-14T05:45:53;98251.19;;;11.56;100.00
55604;BME280;41468;48.838;9.330;2023-05-14T05:48:20;98257.34;;;11.49;100.00
55604;BME280;41468;48.838;9.330;2023-05-14T05:50:48;98257.88;;;11.62;100.00
55604;BME280;41468;48.838;9.330;2023-05-14T05:53:14;98246.84;;;11.51;100.00
55604;BME280;41468;48.838;9.330;2023-05-14T05:55:54;98250.03;;;11.57;100.00
55604;BME280;41468;48.838;9.330;2023-05-14T05:58:21;98253.59;;;11.61;100.00
55604;BME280;41468;48.838;9.330;2023-05-14T06:00:48;98244.88;;;11.52;100.00
55604;BME280;41468;48.838;9.330;2023-05-14T06:03:14;98256.66;;;11.56;100.00
55604;BME280;41468;48.838;9.330;2023-05-14T06:05:41;98257.47;;;11.60;100.00
55604;BME280;41468;48.838;9.330;2023-05-14T06:08:08;98259.50;;;11.66;100.00
55604;BME280;41468;48.838;9.330;2023-05-14T06:10:35;98257.56;;;11.70;100.00
55604;BME280;41468;48.838;9.330;2023-05-14T06:13:03;98255.34;;;11.80;100.00
55604;BME280;41468;48.838;9.330;2023-05-14T06:15:29;98263.13;;;11.78;100.00
55604;BME280;41468;48.838;9.330;2023-05-14T06:17:56;98260.38;;;11.74;100.00
55604;BME280;41468;48.838;9.330;2023-05-14T06:20:30;98264.16;;;11.66;100.00
55604;BME280;41468;48.838;9.330;2023-05-14T06:22:57;98266.22;;;11.76;100.00
55604;BME280;41468;48.838;9.330;2023-05-14T06:25:23;98253.63;;;11.64;100.00
55604;BME280;41468;48.838;9.330;2023-05-14T06:27:50;98268.03;;;11.61;100.00
55604;BME280;41468;48.838;9.330;2023-05-14T06:30:17;98260.38;;;11.78;100.00
55604;BME280;41468;48.838;9.330;2023-05-14T06:32:43;98259.25;;;11.82;100.00
55604;BME280;41468;48.838;9.330;2023-05-14T06:35:10;98267.81;;;11.77;100.00
55604;BME280;41468;48.838;9.330;2023-05-14T06:37:37;98259.25;;;11.82;100.00
55604;BME280;41468;48.838;9.330;2023-05-14T06:40:04;98262.47;;;11.88;100.00
55604;BME280;41468;48.838;9.330;2023-05-14T06:42:31;98253.44;;;11.87;100.00
55604;BME280;41468;48.838;9.330;2023-05-14T06:44:58;98257.38;;;11.90;100.00
55604;BME280;41468;48.838;9.330;2023-05-14T06:47:24;98264.19;;;12.07;100.00
55604;BME280;41468;48.838;9.330;2023-05-14T06:49:51;98264.66;;;12.20;100.00
55604;BME280;41468;48.838;9.330;2023-05-14T06:52:18;98267.38;;;12.16;100.00
55604;BME280;41468;48.838;9.330;2023-05-14T06:54:44;98269.78;;;12.21;100.00
55604;BME280;41468;48.838;9.330;2023-05-14T06:57:11;98257.28;;;12.24;100.00
55604;BME280;41468;48.838;9.330;2023-05-14T06:59:38;98264.81;;;12.41;100.00
55604;BME280;41468;48.838;9.330;2023-05-14T07:02:04;98265.16;;;12.29;100.00
55604;BME280;41468;48.838;9.330;2023-05-14T07:04:31;98269.06;;;12.31;100.00
55604;BME280;41468;48.838;9.330;2023-05-14T07:06:58;98265.25;;;12.43;100.00
55604;BME280;41468;48.838;9.330;2023-05-14T07:09:25;98262.50;;;12.43;100.00
55604;BME280;41468;48.838;9.330;2023-05-14T07:11:52;98267.69;;;12.55;100.00
55604;BME280;41468;48.838;9.330;2023-05-14T07:14:18;98264.66;;;12.71;100.00
55604;BME280;41468;48.838;9.330;2023-05-14T07:16:45;98264.66;;;12.78;100.00
55604;BME280;41468;48.838;9.330;2023-05-14T07:19:23;98264.00;;;12.96;100.00
55604;BME280;41468;48.838;9.330;2023-05-14T07:21:55;98261.28;;;13.07;100.00
55604;BME280;41468;48.838;9.330;2023-05-14T07:24:23;98253.78;;;12.93;100.00
55604;BME280;41468;48.838;9.330;2023-05-14T07:26:49;98255.78;;;12.99;100.00
55604;BME280;41468;48.838;9.330;2023-05-14T07:29:16;98248.78;;;13.09;100.00
55604;BME280;41468;48.838;9.330;2023-05-14T07:31:43;98246.91;;;13.28;100.00
55604;BME280;41468;48.838;9.330;2023-05-14T07:34:10;98243.81;;;13.40;100.00
55604;BME280;41468;48.838;9.330;2023-05-14T07:36:38;98239.09;;;13.40;100.00
55604;BME280;41468;48.838;9.330;2023-05-14T07:39:04;98250.09;;;13.44;100.00
55604;BME280;41468;48.838;9.330;2023-05-14T07:41:31;98246.56;;;13.51;100.00
55604;BME280;41468;48.838;9.330;2023-05-14T07:43:58;98238.75;;;13.63;100.00
55604;BME280;41468;48.838;9.330;2023-05-14T07:46:25;98247.00;;;13.74;100.00
55604;BME280;41468;48.838;9.330;2023-05-14T07:48:52;98250.13;;;13.73;100.00
55604;BME280;41468;48.838;9.330;2023-05-14T07:51:18;98246.22;;;13.74;100.00
55604;BME280;41468;48.838;9.330;2023-05-14T07:53:45;98246.22;;;13.81;99.46
55604;BME280;41468;48.838;9.330;2023-05-14T07:56:12;98244.66;;;13.94;94.22
55604;BME280;41468;48.838;9.330;2023-05-14T07:58:39;98240.75;;;13.99;94.20
55604;BME280;41468;48.838;9.330;2023-05-14T08:01:06;98241.94;;;13.98;98.47
55604;BME280;41468;48.838;9.330;2023-05-14T08:03:34;98236.06;;;14.03;97.53
55604;BME280;41468;48.838;9.330;2023-05-14T08:06:01;98225.06;;;14.13;97.98
55604;BME280;41468;48.838;9.330;2023-05-14T08:08:32;98231.31;;;14.35;97.60
55604;BME280;41468;48.838;9.330;2023-05-14T08:10:59;98233.66;;;14.62;94.88
55604;BME280;41468;48.838;9.330;2023-05-14T08:13:26;98232.06;;;14.75;96.17
55604;BME280;41468;48.838;9.330;2023-05-14T08:15:53;98221.88;;;14.65;95.89
55604;BME280;41468;48.838;9.330;2023-05-14T08:18:19;98219.84;;;14.87;94.97
55604;BME280;41468;48.838;9.330;2023-05-14T08:20:46;98220.63;;;14.88;92.43
55604;BME280;41468;48.838;9.330;2023-05-14T08:23:13;98225.69;;;15.00;94.09
55604;BME280;41468;48.838;9.330;2023-05-14T08:25:40;98225.28;;;15.05;93.74
55604;BME280;41468;48.838;9.330;2023-05-14T08:28:07;98226.66;;;15.42;94.73
55604;BME280;41468;48.838;9.330;2023-05-14T08:30:33;98228.84;;;15.76;89.18
55604;BME280;41468;48.838;9.330;2023-05-14T08:33:00;98228.16;;;16.13;87.57
55604;BME280;41468;48.838;9.330;2023-05-14T08:35:27;98233.31;;;16.07;86.53
55604;BME280;41468;48.838;9.330;2023-05-14T08:37:54;98227.63;;;16.25;85.69
55604;BME280;41468;48.838;9.330;2023-05-14T08:40:22;98221.84;;;16.16;85.61
55604;BME280;41468;48.838;9.330;2023-05-14T08:42:50;98223.81;;;16.16;85.85
55604;BME280;41468;48.838;9.330;2023-05-14T08:45:20;98232.47;;;16.14;83.41
55604;BME280;41468;48.838;9.330;2023-05-14T08:47:51;98225.44;;;16.51;83.48
55604;BME280;41468;48.838;9.330;2023-05-14T08:50:18;98229.91;;;16.75;83.84
55604;BME280;41468;48.838;9.330;2023-05-14T08:52:48;98222.16;;;17.01;76.00
55604;BME280;41468;48.838;9.330;2023-05-14T08:55:15;98228.41;;;16.67;80.44
55604;BME280;41468;48.838;9.330;2023-05-14T08:57:41;98217.97;;;16.89;78.25
55604;BME280;41468;48.838;9.330;2023-05-14T09:00:08;98221.25;;;16.77;79.56
55604;BME280;41468;48.838;9.330;2023-05-14T09:02:39;98217.88;;;16.96;78.79
55604;BME280;41468;48.838;9.330;2023-05-14T09:05:07;98214.81;;;17.49;77.53
55604;BME280;41468;48.838;9.330;2023-05-14T09:07:38;98212.88;;;17.18;78.96
55604;BME280;41468;48.838;9.330;2023-05-14T09:10:05;98221.97;;;16.85;79.17
55604;BME280;41468;48.838;9.330;2023-05-14T09:12:32;98213.19;;;16.93;78.46
55604;BME280;41468;48.838;9.330;2023-05-14T09:14:58;98210.31;;;17.00;75.90
55604;BME280;41468;48.838;9.330;2023-05-14T09:17:25;98206.06;;;16.96;76.46
55604;BME280;41468;48.838;9.330;2023-05-14T09:19:55;98208.97;;;16.85;76.22
55604;BME280;41468;48.838;9.330;2023-05-14T09:22:22;98207.25;;;16.57;77.18
55604;BME280;41468;48.838;9.330;2023-05-14T09:25:02;98201.69;;;16.64;78.66
55604;BME280;41468;48.838;9.330;2023-05-14T09:27:29;98198.16;;;16.60;78.57
55604;BME280;41468;48.838;9.330;2023-05-14T09:30:12;98201.84;;;16.50;80.60
55604;BME280;41468;48.838;9.330;2023-05-14T09:32:41;98204.53;;;16.53;80.53
55604;BME280;41468;48.838;9.330;2023-05-14T09:35:18;98198.09;;;16.67;77.89
55604;BME280;41468;48.838;9.330;2023-05-14T09:37:46;98188.72;;;16.61;77.25
55604;BME280;41468;48.838;9.330;2023-05-14T09:40:14;98185.97;;;16.57;79.04
55604;BME280;41468;48.838;9.330;2023-05-14T09:42:41;98197.66;;;16.72;77.42
55604;BME280;41468;48.838;9.330;2023-05-14T09:45:09;98185.28;;;16.88;75.34
55604;BME280;41468;48.838;9.330;2023-05-14T09:47:37;98186.56;;;16.76;76.57
55604;BME280;41468;48.838;9.330;2023-05-14T09:50:05;98184.59;;;16.80;75.53
55604;BME280;41468;48.838;9.330;2023-05-14T09:52:32;98184.91;;;16.86;75.46
55604;BME280;41468;48.838;9.330;2023-05-14T09:54:59;98189.41;;;17.03;73.95
55604;BME280;41468;48.838;9.330;2023-05-14T09:57:26;98186.47;;;16.49;74.16
55604;BME280;41468;48.838;9.330;2023-05-14T09:59:55;98181.31;;;16.89;78.80
55604;BME280;41468;48.838;9.330;2023-05-14T10:02:41;98176.13;;;16.94;78.37
55604;BME280;41468;48.838;9.330;2023-05-14T10:05:10;98177.78;;;16.88;78.00
55604;BME280;41468;48.838;9.330;2023-05-14T10:07:43;98176.75;;;17.09;74.46
55604;BME280;41468;48.838;9.330;2023-05-14T10:10:18;98173.63;;;17.07;73.84
55604;BME280;41468;48.838;9.330;2023-05-14T10:12:50;98176.47;;;17.31;72.22
55604;BME280;41468;48.838;9.330;2023-05-14T10:15:25;98176.78;;;17.33;72.22
55604;BME280;41468;48.838;9.330;2023-05-14T10:17:55;98175.88;;;17.43;72.85
55604;BME280;41468;48.838;9.330;2023-05-14T10:20:25;98178.94;;;17.49;71.25
55604;BME280;41468;48.838;9.330;2023-05-14T10:22:52;98175.41;;;17.21;73.35
55604;BME280;41468;48.838;9.330;2023-05-14T10:25:20;98169.94;;;17.17;76.58
55604;BME280;41468;48.838;9.330;2023-05-14T10:27:47;98164.81;;;17.16;75.30
55604;BME280;41468;48.838;9.330;2023-05-14T10:30:14;98165.41;;;17.31;76.02
55604;BME280;41468;48.838;9.330;2023-05-14T10:32:41;98168.69;;;17.49;76.75
55604;BME280;41468;48.838;9.330;2023-05-14T10:35:17;98162.53;;;17.65;74.16
55604;BME280;41468;48.838;9.330;2023-05-14T10:37:46;98163.00;;;17.87;70.84
55604;BME280;41468;48.838;9.330;2023-05-14T10:40:16;98161.50;;;17.82;70.32
55604;BME280;41468;48.838;9.330;2023-05-14T10:42:45;98163.84;;;17.84;71.71
55604;BME280;41468;48.838;9.330;2023-05-14T10:45:13;98156.03;;;17.79;71.59
55604;BME280;41468;48.838;9.330;2023-05-14T10:47:45;98157.84;;;17.62;72.40
55604;BME280;41468;48.838;9.330;2023-05-14T10:50:15;98162.00;;;17.74;71.22
55604;BME280;41468;48.838;9.330;2023-05-14T10:52:43;98156.69;;;17.86;73.02
55604;BME280;41468;48.838;9.330;2023-05-14T10:55:13;98154.28;;;18.12;69.15
55604;BME280;41468;48.838;9.330;2023-05-14T10:57:41;98152.06;;;18.03;69.99
55604;BME280;41468;48.838;9.330;2023-05-14T11:00:10;98143.63;;;18.10;70.33
55604;BME280;41468;48.838;9.330;2023-05-14T11:02:41;98149.00;;;17.98;69.05
55604;BME280;41468;48.838;9.330;2023-05-14T11:05:10;98145.59;;;17.90;69.64
55604;BME280;41468;48.838;9.330;2023-05-14T11:07:40;98142.00;;;17.66;72.02
55604;BME280;41468;48.838;9.330;2023-05-14T11:10:15;98140.06;;;17.39;74.99
55604;BME280;41468;48.838;9.330;2023-05-14T11:12:47;98139.13;;;17.50;73.09
55604;BME280;41468;48.838;9.330;2023-05-14T11:15:21;98139.38;;;17.32;74.64
55604;BME280;41468;48.838;9.330;2023-05-14T11:17:49;98125.50;;;17.35;75.72
55604;BME280;41468;48.838;9.330;2023-05-14T11:20:17;98140.78;;;17.67;71.18
55604;BME280;41468;48.838;9.330;2023-05-14T11:22:45;98125.28;;;18.00;69.66
55604;BME280;41468;48.838;9.330;2023-05-14T11:25:12;98120.94;;;18.23;68.11
55604;BME280;41468;48.838;9.330;2023-05-14T11:27:42;98118.59;;;18.41;68.37
55604;BME280;41468;48.838;9.330;2023-05-14T11:30:17;98115.78;;;18.01;70.32
55604;BME280;41468;48.838;9.330;2023-05-14T11:32:45;98124.94;;;17.98;69.20
55604;BME280;41468;48.838;9.330;2023-05-14T11:35:13;98117.72;;;18.04;66.79
55604;BME280;41468;48.838;9.330;2023-05-14T11:37:42;98119.03;;;17.96;67.64
55604;BME280;41468;48.838;9.330;2023-05-14T11:40:14;98107.97;;;18.20;65.19
55604;BME280;41468;48.838;9.330;2023-05-14T11:42:44;98104.31;;;19.03;62.51
55604;BME280;41468;48.838;9.330;2023-05-14T11:45:12;98109.44;;;19.20;62.25
55604;BME280;41468;48.838;9.330;2023-05-14T11:47:40;98108.56;;;19.07;60.40
55604;BME280;41468;48.838;9.330;2023-05-14T11:50:07;98110.16;;;18.88;62.41
55604;BME280;41468;48.838;9.330;2023-05-14T11:52:39;98109.31;;;18.51;62.64
55604;BME280;41468;48.838;9.330;2023-05-14T11:55:10;98107.66;;;18.74;63.19
55604;BME280;41468;48.838;9.330;2023-05-14T11:57:39;98101.34;;;18.93;60.92
55604;BME280;41468;48.838;9.330;2023-05-14T12:00:07;98098.38;;;19.20;56.21
55604;BME280;41468;48.838;9.330;2023-05-14T12:02:35;98094.78;;;19.56;57.71
55604;BME280;41468;48.838;9.330;2023-05-14T12:05:04;98096.56;;;19.63;57.42
55604;BME280;41468;48.838;9.330;2023-05-14T12:07:32;98079.44;;;19.35;56.47
55604;BME280;41468;48.838;9.330;2023-05-14T12:10:01;98087.03;;;19.31;55.21
55604;BME280;41468;48.838;9.330;2023-05-14T12:12:33;98083.00;;;19.69;59.95
55604;BME280;41468;48.838;9.330;2023-05-14T12:15:08;98082.38;;;19.94;56.71
55604;BME280;41468;48.838;9.330;2023-05-14T12:17:36;98081.94;;;20.24;55.05
55604;BME280;41468;48.838;9.330;2023-05-14T12:20:04;98087.34;;;20.15;57.82
55604;BME280;41468;48.838;9.330;2023-05-14T12:22:33;98084.56;;;19.86;57.53
55604;BME280;41468;48.838;9.330;2023-05-14T12:25:02;98080.69;;;19.51;58.51
55604;BME280;41468;48.838;9.330;2023-05-14T12:27:29;98083.59;;;19.11;59.83
55604;BME280;41468;48.838;9.330;2023-05-14T12:30:03;98076.19;;;18.88;57.65
55604;BME280;41468;48.838;9.330;2023-05-14T12:32:34;98080.25;;;18.63;59.51
55604;BME280;41468;48.838;9.330;2023-05-14T12:35:01;98076.19;;;18.68;58.61
55604;BME280;41468;48.838;9.330;2023-05-14T12:37:28;98068.84;;;18.41;61.33
55604;BME280;41468;48.838;9.330;2023-05-14T12:39:56;98063.97;;;18.49;60.31
55604;BME280;41468;48.838;9.330;2023-05-14T12:42:23;98064.94;;;18.39;62.42
55604;BME280;41468;48.838;9.330;2023-05-14T12:44:49;98061.59;;;18.47;61.87
55604;BME280;41468;48.838;9.330;2023-05-14T12:47:16;98054.19;;;18.44;63.48
55604;BME280;41468;48.838;9.330;2023-05-14T12:49:43;98053.88;;;18.59;61.86
55604;BME280;41468;48.838;9.330;2023-05-14T12:52:10;98051.47;;;18.61;58.75
55604;BME280;41468;48.838;9.330;2023-05-14T12:54:39;98047.22;;;18.76;60.96
55604;BME280;41468;48.838;9.330;2023-05-14T12:57:08;98043.09;;;19.01;58.52
55604;BME280;41468;48.838;9.330;2023-05-14T12:59:35;98038.25;;;19.05;59.69
55604;BME280;41468;48.838;9.330;2023-05-14T13:02:02;98043.34;;;19.55;56.44